createdAt,value
2023-03-15T00:01:24.539Z,88.14
2023-03-15T00:03:52.224Z,88.43
2023-03-15T00:06:21.760Z,88.37
2023-03-15T00:08:51.984Z,88.35
2023-03-15T00:11:20.325Z,88.32
2023-03-15T00:13:47.983Z,88.01
2023-03-15T00:16:17.633Z,88.14
2023-03-15T00:18:46.932Z,87.92
2023-03-15T00:21:15.786Z,88.20
2023-03-15T00:23:44.758Z,88.12
2023-03-15T00:26:14.192Z,88.19
2023-03-15T00:28:42.538Z,88.16
2023-03-15T00:31:15.625Z,88.24
2023-03-15T00:33:46.551Z,88.16
2023-03-15T00:36:17.524Z,88.69
2023-03-15T00:38:47.590Z,89.93
2023-03-15T00:41:18.470Z,90.75
2023-03-15T00:43:47.784Z,92.02
2023-03-15T00:46:19.379Z,92.78
2023-03-15T00:48:49.206Z,93.83
2023-03-15T00:51:21.133Z,95.51
2023-03-15T00:53:51.490Z,96.65
2023-03-15T00:56:21.739Z,97.37
2023-03-15T00:58:52.779Z,98.29
2023-03-15T01:01:23.200Z,99.20
2023-03-15T01:03:51.776Z,100.00
2023-03-15T01:06:22.608Z,100.00
2023-03-15T01:08:52.381Z,100.00
2023-03-15T01:11:24.156Z,100.00
2023-03-15T01:13:52.147Z,100.00
2023-03-15T01:16:20.845Z,100.00
2023-03-15T01:18:48.642Z,100.00
2023-03-15T01:21:17.386Z,100.00
2023-03-15T01:23:47.759Z,100.00
2023-03-15T01:26:18.748Z,100.00
2023-03-15T01:28:46.497Z,100.00
2023-03-15T01:31:18.612Z,100.00
2023-03-15T01:33:47.951Z,100.00
2023-03-15T01:36:16.110Z,100.00
2023-03-15T01:38:44.579Z,100.00
2023-03-15T01:41:16.862Z,100.00
2023-03-15T01:43:47.178Z,100.00
2023-03-15T01:46:29.601Z,100.00
2023-03-15T01:49:09.640Z,100.00
2023-03-15T01:51:45.986Z,100.00
2023-03-15T01:54:19.208Z,100.00
2023-03-15T01:56:56.669Z,100.00
2023-03-15T01:59:31.996Z,100.00
2023-03-15T02:02:01.463Z,100.00
2023-03-15T02:04:35.209Z,100.00
2023-03-15T02:07:05.571Z,100.00
2023-03-15T02:09:41.627Z,100.00
2023-03-15T02:12:12.275Z,100.00
2023-03-15T02:14:41.778Z,100.00
2023-03-15T02:17:13.650Z,100.00
2023-03-15T02:19:51.108Z,100.00
2023-03-15T02:22:31.014Z,100.00
2023-03-15T02:25:05.839Z,100.00
2023-03-15T02:27:38.693Z,100.00
2023-03-15T02:30:08.942Z,100.00
2023-03-15T02:32:37.576Z,100.00
2023-03-15T02:35:06.462Z,100.00
2023-03-15T02:37:34.064Z,100.00
2023-03-15T02:40:02.517Z,100.00
2023-03-15T02:42:31.554Z,100.00
2023-03-15T02:45:00.622Z,100.00
2023-03-15T02:47:34.626Z,100.00
2023-03-15T02:50:03.631Z,100.00
2023-03-15T02:52:32.562Z,100.00
2023-03-15T02:55:03.088Z,100.00
2023-03-15T02:57:33.982Z,100.00
2023-03-15T03:00:11.635Z,100.00
2023-03-15T03:02:40.264Z,100.00
2023-03-15T03:05:11.738Z,100.00
2023-03-15T03:07:42.735Z,100.00
2023-03-15T03:10:18.380Z,100.00
2023-03-15T03:12:53.388Z,100.00
2023-03-15T03:15:27.741Z,100.00
2023-03-15T03:17:55.385Z,100.00
2023-03-15T03:20:24.394Z,100.00
2023-03-15T03:22:51.993Z,100.00
2023-03-15T03:25:19.662Z,100.00
2023-03-15T03:27:49.006Z,100.00
2023-03-15T03:30:17.294Z,100.00
2023-03-15T03:32:51.785Z,100.00
2023-03-15T03:35:21.441Z,100.00
2023-03-15T03:37:49.030Z,100.00
2023-03-15T03:40:21.683Z,100.00
2023-03-15T03:42:49.534Z,100.00
2023-03-15T03:45:19.723Z,100.00
2023-03-15T03:47:53.621Z,100.00
2023-03-15T03:50:22.141Z,100.00
2023-03-15T03:52:49.816Z,100.00
2023-03-15T03:55:25.012Z,100.00
2023-03-15T03:57:54.716Z,100.00
2023-03-15T04:00:41.638Z,100.00
2023-03-15T04:03:11.530Z,100.00
2023-03-15T04:05:42.800Z,100.00
2023-03-15T04:08:14.539Z,100.00
2023-03-15T04:10:43.089Z,100.00
2023-03-15T04:13:11.537Z,100.00
2023-03-15T04:15:41.128Z,100.00
2023-03-15T04:18:11.607Z,100.00
2023-03-15T04:20:46.530Z,100.00
2023-03-15T04:23:15.100Z,100.00
2023-03-15T04:26:03.793Z,100.00
2023-03-15T04:28:51.565Z,100.00
2023-03-15T04:31:39.293Z,100.00
2023-03-15T04:34:28.224Z,100.00
2023-03-15T04:37:02.855Z,100.00
2023-03-15T04:39:52.549Z,100.00
2023-03-15T04:42:20.685Z,100.00
2023-03-15T04:45:11.781Z,100.00
2023-03-15T04:47:39.342Z,100.00
2023-03-15T04:50:32.055Z,100.00
2023-03-15T04:53:22.625Z,100.00
2023-03-15T04:56:04.908Z,100.00
2023-03-15T04:59:08.029Z,100.00
2023-03-15T05:01:56.644Z,100.00
2023-03-15T05:04:33.823Z,100.00
2023-03-15T05:07:26.793Z,100.00
2023-03-15T05:10:17.415Z,100.00
2023-03-15T05:13:03.554Z,100.00
2023-03-15T05:15:49.142Z,100.00
2023-03-15T05:18:35.502Z,100.00
2023-03-15T05:21:26.339Z,100.00
2023-03-15T05:24:08.595Z,100.00
2023-03-15T05:26:54.111Z,100.00
2023-03-15T05:29:40.536Z,100.00
2023-03-15T05:32:26.644Z,100.00
2023-03-15T05:35:43.932Z,100.00
2023-03-15T05:38:31.853Z,100.00
2023-03-15T05:41:11.339Z,100.00
2023-03-15T05:44:00.365Z,100.00
2023-03-15T05:46:46.459Z,100.00
2023-03-15T05:49:37.346Z,100.00
2023-03-15T05:52:24.067Z,100.00
2023-03-15T05:55:10.527Z,100.00
2023-03-15T05:57:53.646Z,100.00
2023-03-15T06:00:39.582Z,100.00
2023-03-15T06:03:17.588Z,100.00
2023-03-15T06:05:56.988Z,100.00
2023-03-15T06:08:34.545Z,100.00
2023-03-15T06:11:02.226Z,100.00
2023-03-15T06:13:32.534Z,100.00
2023-03-15T06:16:02.694Z,100.00
2023-03-15T06:18:31.989Z,100.00
2023-03-15T06:21:00.605Z,100.00
2023-03-15T06:23:28.538Z,100.00
2023-03-15T06:25:56.636Z,100.00
2023-03-15T06:28:26.071Z,100.00
2023-03-15T06:30:59.676Z,100.00
2023-03-15T06:33:36.546Z,100.00
2023-03-15T06:36:04.855Z,100.00
2023-03-15T06:38:32.829Z,100.00
2023-03-15T06:41:02.664Z,100.00
2023-03-15T06:43:31.814Z,100.00
2023-03-15T06:46:02.576Z,100.00
2023-03-15T06:48:33.533Z,100.00
2023-03-15T06:51:01.629Z,100.00
2023-03-15T06:53:29.212Z,100.00
2023-03-15T06:55:56.862Z,100.00
2023-03-15T06:58:24.427Z,100.00
2023-03-15T07:00:52.269Z,100.00
2023-03-15T07:03:22.273Z,100.00
2023-03-15T07:05:52.583Z,100.00
2023-03-15T07:08:20.707Z,100.00
2023-03-15T07:10:49.538Z,100.00
2023-03-15T07:13:18.280Z,100.00
2023-03-15T07:15:47.643Z,100.00
2023-03-15T07:21:10.184Z,100.00
2023-03-15T07:23:39.550Z,100.00
2023-03-15T07:26:07.157Z,100.00
2023-03-15T07:28:35.085Z,100.00
2023-03-15T07:31:04.513Z,100.00
2023-03-15T07:33:34.543Z,100.00
2023-03-15T07:36:05.092Z,100.00
2023-03-15T07:38:35.644Z,100.00
2023-03-15T07:41:04.044Z,100.00
2023-03-15T07:43:31.972Z,100.00
2023-03-15T07:46:12.239Z,100.00
2023-03-15T07:48:40.169Z,100.00
2023-03-15T07:51:11.542Z,100.00
2023-03-15T07:54:06.265Z,100.00
2023-03-15T07:56:34.638Z,100.00
2023-03-15T07:59:03.602Z,100.00
2023-03-15T08:01:31.249Z,100.00
2023-03-15T08:03:58.870Z,100.00
2023-03-15T08:06:26.617Z,100.00
2023-03-15T08:08:55.931Z,100.00
2023-03-15T08:11:24.862Z,100.00
2023-03-15T08:14:18.828Z,100.00
2023-03-15T08:16:47.151Z,100.00
2023-03-15T08:19:15.101Z,100.00
2023-03-15T08:21:45.728Z,100.00
2023-03-15T08:24:13.593Z,100.00
2023-03-15T08:26:43.526Z,100.00
2023-03-15T08:29:12.095Z,100.00
2023-03-15T08:31:40.204Z,100.00
2023-03-15T08:34:08.086Z,100.00
2023-03-15T08:36:36.667Z,100.00
2023-03-15T08:39:05.520Z,100.00
2023-03-15T08:41:34.532Z,100.00
2023-03-15T08:44:03.484Z,100.00
2023-03-15T08:46:33.842Z,100.00
2023-03-15T08:49:01.580Z,100.00
2023-03-15T08:51:31.179Z,100.00
2023-03-15T08:53:59.258Z,100.00
2023-03-15T08:56:27.422Z,100.00
2023-03-15T08:58:56.527Z,100.00
2023-03-15T09:01:25.479Z,100.00
2023-03-15T09:03:53.725Z,100.00
2023-03-15T09:06:22.156Z,100.00
2023-03-15T09:08:50.746Z,100.00
2023-03-15T09:11:18.920Z,100.00
2023-03-15T09:13:46.639Z,100.00
2023-03-15T09:16:14.285Z,100.00
2023-03-15T09:18:45.283Z,100.00
2023-03-15T09:21:13.125Z,100.00
2023-03-15T09:23:40.691Z,100.00
2023-03-15T09:26:10.708Z,99.17
2023-03-15T09:28:39.529Z,98.32
2023-03-15T09:31:08.571Z,97.82
2023-03-15T09:33:36.722Z,96.15
2023-03-15T09:36:06.288Z,95.47
2023-03-15T09:38:34.166Z,95.31
2023-03-15T09:41:05.546Z,95.13
2023-03-15T09:43:56.539Z,94.92
2023-03-15T09:46:30.852Z,95.18
2023-03-15T09:49:08.860Z,95.79
2023-03-15T09:51:47.807Z,96.11
2023-03-15T09:54:19.481Z,93.98
2023-03-15T09:56:54.191Z,93.29
2023-03-15T09:59:23.570Z,93.38
2023-03-15T10:01:57.300Z,93.97
2023-03-15T10:04:30.466Z,94.07
2023-03-15T10:07:01.851Z,93.05
2023-03-15T10:09:33.135Z,91.83
2023-03-15T10:12:05.625Z,87.96
2023-03-15T10:14:51.497Z,86.93
2023-03-15T10:17:29.691Z,85.98
2023-03-15T10:20:04.322Z,86.33
2023-03-15T10:22:39.702Z,87.12
2023-03-15T10:25:16.569Z,88.06
2023-03-15T10:27:51.657Z,86.70
2023-03-15T10:30:23.725Z,85.51
2023-03-15T10:32:59.637Z,84.32
2023-03-15T10:35:31.960Z,84.92
2023-03-15T10:38:02.543Z,84.62
2023-03-15T10:40:42.630Z,85.19
2023-03-15T10:43:18.622Z,84.47
2023-03-15T10:45:51.433Z,82.39
2023-03-15T10:48:19.619Z,79.50
2023-03-15T10:50:53.675Z,77.56
2023-03-15T10:53:25.515Z,76.66
2023-03-15T10:56:00.551Z,75.97
2023-03-15T10:58:31.424Z,75.63
2023-03-15T11:01:07.352Z,74.15
2023-03-15T11:03:36.553Z,72.68
2023-03-15T11:06:20.767Z,71.22
2023-03-15T11:08:54.331Z,71.00
2023-03-15T11:11:21.939Z,71.49
2023-03-15T11:14:01.331Z,71.78
2023-03-15T11:16:35.244Z,71.52
2023-03-15T11:19:06.543Z,72.99
2023-03-15T11:21:36.778Z,74.34
2023-03-15T11:24:08.465Z,71.99
2023-03-15T11:26:38.704Z,70.98
2023-03-15T11:29:17.556Z,71.25
2023-03-15T11:31:46.672Z,72.04
2023-03-15T11:34:21.554Z,71.82
2023-03-15T11:37:07.265Z,72.09
2023-03-15T11:39:44.997Z,70.97
2023-03-15T11:42:21.651Z,71.06
2023-03-15T11:44:55.633Z,71.09
2023-03-15T11:47:35.531Z,69.61
2023-03-15T11:50:03.814Z,68.77
2023-03-15T11:52:33.538Z,67.91
2023-03-15T11:55:04.932Z,67.39
2023-03-15T11:57:44.222Z,65.39
2023-03-15T12:00:52.315Z,66.27
2023-03-15T12:03:42.058Z,66.28
2023-03-15T12:06:37.466Z,61.04
2023-03-15T12:09:52.214Z,59.46
2023-03-15T12:12:45.540Z,58.84
2023-03-15T12:15:49.607Z,60.39
2023-03-15T12:18:23.626Z,58.55
2023-03-15T12:20:58.440Z,58.17
2023-03-15T12:23:38.969Z,59.59
2023-03-15T12:26:10.877Z,60.48
2023-03-15T12:28:45.233Z,61.19
2023-03-15T12:31:15.212Z,59.46
2023-03-15T12:33:49.145Z,59.87
2023-03-15T12:36:21.973Z,59.85
2023-03-15T12:39:01.503Z,57.31
2023-03-15T12:41:41.105Z,56.34
2023-03-15T12:44:37.374Z,56.45
2023-03-15T12:47:06.413Z,57.22
2023-03-15T12:49:40.993Z,57.61
2023-03-15T12:52:29.961Z,57.29
2023-03-15T12:55:06.882Z,57.13
2023-03-15T13:00:36.751Z,53.81
2023-03-15T13:03:08.830Z,54.52
2023-03-15T13:06:02.807Z,54.71
2023-03-15T13:08:43.317Z,55.41
2023-03-15T13:11:21.133Z,54.85
2023-03-15T13:14:06.290Z,54.58
2023-03-15T13:16:39.971Z,54.08
2023-03-15T13:19:18.644Z,54.43
2023-03-15T13:22:08.605Z,54.09
2023-03-15T13:24:47.535Z,53.69
2023-03-15T13:27:29.806Z,54.07
2023-03-15T13:29:57.595Z,53.38
2023-03-15T13:32:26.647Z,53.39
2023-03-15T13:34:54.339Z,53.32
2023-03-15T13:37:26.657Z,52.70
2023-03-15T13:39:57.551Z,53.10
2023-03-15T13:42:25.814Z,51.70
2023-03-15T13:45:11.248Z,50.40
2023-03-15T13:47:42.637Z,49.15
2023-03-15T13:50:17.486Z,49.11
2023-03-15T13:52:45.909Z,49.31
2023-03-15T13:55:15.729Z,49.92
2023-03-15T13:57:43.885Z,49.71
2023-03-15T14:00:17.161Z,48.01
2023-03-15T14:02:55.105Z,47.42
2023-03-15T14:05:28.119Z,46.23
2023-03-15T14:08:02.611Z,46.31
2023-03-15T14:10:32.510Z,46.51
2023-03-15T14:13:17.938Z,46.84
2023-03-15T14:15:48.503Z,46.53
2023-03-15T14:18:24.542Z,48.06
2023-03-15T14:20:59.822Z,47.62
2023-03-15T14:23:31.538Z,46.09
2023-03-15T14:26:07.491Z,45.80
2023-03-15T14:28:35.654Z,46.65
2023-03-15T14:31:04.437Z,47.71
2023-03-15T14:33:37.334Z,48.01
2023-03-15T14:36:09.492Z,48.52
2023-03-15T14:38:39.730Z,47.95
2023-03-15T14:41:26.233Z,47.99
2023-03-15T14:43:54.028Z,48.26
2023-03-15T14:46:21.877Z,49.30
2023-03-15T14:48:52.130Z,49.20
2023-03-15T14:51:22.953Z,49.70
2023-03-15T14:53:54.542Z,51.00
2023-03-15T14:56:22.238Z,51.43
2023-03-15T14:58:50.384Z,51.54
2023-03-15T15:01:24.835Z,51.57
2023-03-15T15:03:57.939Z,50.83
2023-03-15T15:06:28.563Z,50.50
2023-03-15T15:08:58.673Z,50.50
2023-03-15T15:11:29.080Z,50.56
2023-03-15T15:13:57.586Z,51.28
2023-03-15T15:16:25.789Z,51.73
2023-03-15T15:18:54.769Z,50.91
2023-03-15T15:21:25.921Z,50.37
2023-03-15T15:23:58.830Z,51.29
2023-03-15T15:26:29.099Z,48.96
2023-03-15T15:28:57.398Z,48.95
2023-03-15T15:31:26.341Z,47.21
2023-03-15T15:33:56.738Z,45.70
2023-03-15T15:36:27.686Z,46.12
2023-03-15T15:38:55.567Z,46.83
2023-03-15T15:41:26.562Z,47.42
2023-03-15T15:43:54.572Z,47.90
2023-03-15T15:46:23.773Z,48.08
2023-03-15T15:48:51.989Z,49.05
2023-03-15T15:51:26.513Z,49.23
2023-03-15T15:53:58.693Z,49.30
2023-03-15T15:56:32.814Z,48.65
2023-03-15T15:59:02.980Z,48.04
2023-03-15T16:01:31.614Z,46.22
2023-03-15T16:03:59.591Z,46.98
2023-03-15T16:06:30.656Z,47.21
2023-03-15T16:08:59.564Z,48.48
2023-03-15T16:11:28.717Z,49.52
2023-03-15T16:13:57.546Z,49.80
2023-03-15T16:16:25.632Z,49.79
2023-03-15T16:18:53.213Z,49.96
2023-03-15T16:21:32.861Z,50.01
2023-03-15T16:24:06.206Z,49.80
2023-03-15T16:26:35.515Z,49.25
2023-03-15T16:29:03.181Z,49.05
2023-03-15T16:34:26.125Z,49.02
2023-03-15T16:37:02.901Z,47.94
2023-03-15T16:39:56.665Z,48.33
2023-03-15T16:42:57.218Z,49.35
2023-03-15T16:45:49.534Z,49.54
2023-03-15T16:52:03.536Z,51.94
2023-03-15T16:58:54.542Z,52.97
2023-03-15T17:05:13.345Z,56.26
2023-03-15T17:08:07.195Z,57.48
2023-03-15T17:14:20.853Z,58.69
2023-03-15T17:17:13.927Z,57.32
2023-03-15T17:19:41.636Z,56.88
2023-03-15T17:25:28.820Z,56.00
2023-03-15T17:34:58.955Z,58.14
2023-03-15T17:40:51.339Z,60.51
2023-03-15T17:43:21.409Z,62.13
2023-03-15T17:45:49.564Z,63.49
2023-03-15T17:48:17.241Z,64.27
2023-03-15T17:50:45.590Z,64.13
2023-03-15T17:53:17.189Z,64.45
2023-03-15T17:55:46.917Z,64.77
2023-03-15T17:58:26.201Z,65.82
2023-03-15T18:00:59.934Z,67.51
2023-03-15T18:03:28.257Z,69.03
2023-03-15T18:05:58.757Z,70.37
2023-03-15T18:08:28.638Z,70.91
2023-03-15T18:10:56.951Z,71.17
2023-03-15T18:13:28.262Z,71.19
2023-03-15T18:15:56.229Z,71.41
2023-03-15T18:18:24.494Z,70.91
2023-03-15T18:20:52.227Z,71.08
2023-03-15T18:23:20.474Z,70.61
2023-03-15T18:25:48.160Z,70.56
2023-03-15T18:28:17.568Z,70.32
2023-03-15T18:30:46.634Z,70.18
2023-03-15T18:33:16.607Z,69.31
2023-03-15T18:35:44.708Z,69.22
2023-03-15T18:38:12.616Z,70.04
2023-03-15T18:40:41.341Z,70.94
2023-03-15T18:43:12.923Z,71.85
2023-03-15T18:45:41.747Z,72.47
2023-03-15T18:48:10.808Z,73.17
2023-03-15T18:50:38.562Z,73.80
2023-03-15T18:53:06.720Z,74.76
2023-03-15T18:55:35.421Z,74.98
2023-03-15T18:58:04.145Z,75.24
2023-03-15T19:00:35.916Z,74.69
2023-03-15T19:03:58.097Z,73.98
2023-03-15T19:06:27.063Z,73.95
2023-03-15T19:08:54.768Z,74.08
2023-03-15T19:11:26.880Z,73.82
2023-03-15T19:13:56.109Z,73.78
2023-03-15T19:16:27.557Z,73.96
2023-03-15T19:22:19.184Z,73.83
2023-03-15T19:24:47.054Z,73.91
2023-03-15T19:27:15.009Z,74.11
2023-03-15T19:29:43.278Z,74.52
2023-03-15T19:32:10.841Z,74.75
2023-03-15T19:34:40.534Z,76.12
2023-03-15T19:37:08.246Z,77.96
2023-03-15T19:39:36.402Z,79.73
2023-03-15T19:42:04.905Z,81.52
2023-03-15T19:47:54.946Z,82.82
2023-03-15T19:50:25.237Z,82.60
2023-03-15T19:55:50.090Z,83.02
2023-03-15T20:01:40.114Z,83.85
2023-03-15T20:09:05.838Z,84.63
2023-03-15T20:11:33.508Z,85.00
2023-03-15T20:14:02.090Z,84.97
2023-03-15T20:16:54.961Z,84.99
2023-03-15T20:19:23.466Z,85.46
2023-03-15T20:21:51.105Z,85.65
2023-03-15T20:27:13.235Z,84.68
2023-03-15T20:29:41.562Z,84.50
2023-03-15T20:32:13.100Z,83.89
2023-03-15T20:34:41.282Z,84.52
2023-03-15T20:37:09.649Z,85.19
2023-03-15T20:39:43.802Z,85.50
2023-03-15T20:42:13.717Z,85.71
2023-03-15T20:47:58.780Z,86.79
2023-03-15T20:50:52.916Z,88.05
2023-03-15T20:53:21.094Z,88.56
2023-03-15T20:55:56.792Z,89.22
2023-03-15T20:58:25.504Z,90.00
2023-03-15T21:00:57.172Z,90.20
2023-03-15T21:03:24.925Z,90.64
2023-03-15T21:05:56.401Z,90.58
2023-03-15T21:08:24.202Z,90.24
2023-03-15T21:10:53.666Z,90.67
2023-03-15T21:13:22.425Z,90.96
2023-03-15T21:15:53.169Z,91.21
2023-03-15T21:18:23.142Z,91.45
2023-03-15T21:20:58.097Z,91.86
2023-03-15T21:23:28.180Z,92.15
2023-03-15T21:25:58.850Z,92.11
2023-03-15T21:28:26.810Z,92.08
2023-03-15T21:30:56.977Z,92.04
2023-03-15T21:33:26.486Z,92.57
2023-03-15T21:36:00.632Z,92.95
2023-03-15T21:38:31.346Z,93.36
2023-03-15T21:41:00.614Z,93.37
2023-03-15T21:43:29.631Z,93.51
2023-03-15T21:45:59.897Z,93.61
2023-03-15T21:48:29.549Z,93.73
2023-03-15T21:50:59.100Z,93.56
2023-03-15T21:53:26.688Z,93.64
2023-03-15T21:55:56.404Z,93.25
2023-03-15T21:58:25.636Z,92.90
2023-03-15T22:00:58.453Z,92.68
2023-03-15T22:03:26.638Z,92.95
2023-03-15T22:05:54.271Z,92.38
2023-03-15T22:08:22.217Z,92.57
2023-03-15T22:10:53.015Z,92.07
2023-03-15T22:13:21.206Z,92.18
2023-03-15T22:15:51.653Z,92.30
2023-03-15T22:18:22.013Z,92.67
2023-03-15T22:20:51.805Z,92.91
2023-03-15T22:23:23.534Z,93.22
2023-03-15T22:25:54.352Z,93.57
2023-03-15T22:28:22.387Z,93.21
2023-03-15T22:30:52.627Z,93.33
2023-03-15T22:33:22.199Z,93.49
2023-03-15T22:35:55.576Z,93.25
2023-03-15T22:38:24.560Z,93.27
2023-03-15T22:41:01.527Z,93.06
2023-03-15T22:43:31.248Z,92.83
2023-03-15T22:46:00.335Z,92.71
2023-03-15T22:48:29.069Z,92.90
2023-03-15T22:50:58.620Z,92.45
2023-03-15T22:53:26.535Z,92.75
2023-03-15T22:55:56.173Z,92.22
2023-03-15T22:58:24.223Z,92.40
2023-03-15T23:00:52.577Z,92.81
2023-03-15T23:03:21.622Z,92.50
2023-03-15T23:05:49.259Z,92.78
2023-03-15T23:08:17.034Z,92.78
2023-03-15T23:10:45.671Z,92.82
2023-03-15T23:13:14.375Z,93.18
2023-03-15T23:15:42.551Z,93.22
2023-03-15T23:18:10.565Z,93.44
2023-03-15T23:20:41.606Z,93.22
2023-03-15T23:23:10.276Z,93.68
2023-03-15T23:25:39.192Z,93.17
2023-03-15T23:28:07.447Z,93.46
2023-03-15T23:30:36.303Z,93.52
2023-03-15T23:33:04.345Z,93.63
2023-03-15T23:35:32.586Z,93.72
2023-03-15T23:38:01.783Z,93.67
2023-03-15T23:40:30.320Z,93.72
2023-03-15T23:42:59.586Z,93.84
2023-03-15T23:45:29.800Z,93.56
2023-03-15T23:47:57.579Z,93.45
2023-03-15T23:50:26.805Z,93.63
2023-03-15T23:52:57.119Z,93.39
2023-03-15T23:55:27.215Z,93.39
2023-03-15T23:57:54.833Z,93.38
